createdAt,value
2018-11-06T22:01:01.447Z,44.80
2018-11-06T22:03:30.456Z,43.20
2018-11-06T22:05:59.455Z,43.40
2018-11-06T22:08:28.461Z,44.00
2018-11-06T22:10:57.679Z,43.90
2018-11-06T22:13:27.448Z,43.90
2018-11-06T22:15:56.525Z,44.10
2018-11-06T22:18:25.681Z,44.10
2018-11-06T22:20:54.732Z,44.30
2018-11-06T22:23:24.640Z,44.30
2018-11-06T22:25:54.463Z,44.30
2018-11-06T22:28:23.457Z,44.30
2018-11-06T22:30:52.544Z,44.50
2018-11-06T22:33:21.508Z,44.70
2018-11-06T22:35:50.536Z,44.80
2018-11-06T22:38:19.523Z,45.10
2018-11-06T22:40:48.523Z,45.00
2018-11-06T22:43:17.517Z,44.90
2018-11-06T22:45:46.510Z,45.00
2018-11-06T22:48:15.852Z,45.00
2018-11-06T22:51:49.881Z,45.80
2018-11-06T22:54:18.919Z,45.00
2018-11-06T22:56:47.928Z,45.20
2018-11-06T22:59:16.975Z,45.80
2018-11-06T23:01:46.048Z,45.20
2018-11-06T23:04:15.047Z,44.70
2018-11-06T23:06:44.141Z,45.50
2018-11-06T23:09:13.070Z,45.50
2018-11-06T23:11:42.191Z,44.90
2018-11-06T23:14:11.236Z,45.00
2018-11-06T23:16:40.309Z,45.00
2018-11-06T23:19:09.316Z,44.70
2018-11-06T23:22:41.759Z,44.90
2018-11-06T23:25:10.796Z,45.10
2018-11-06T23:27:40.092Z,45.00
2018-11-06T23:30:12.013Z,45.30
2018-11-06T23:32:41.096Z,45.90
2018-11-06T23:35:10.120Z,44.70
2018-11-06T23:37:40.535Z,44.80
2018-11-06T23:40:10.244Z,44.70
2018-11-06T23:42:39.845Z,45.40
2018-11-06T23:45:09.252Z,45.30
2018-11-06T23:47:38.305Z,44.90
2018-11-06T23:50:08.380Z,43.80
2018-11-06T23:52:37.384Z,43.20
2018-11-06T23:55:06.636Z,44.30
2018-11-06T23:57:35.604Z,44.20
